Time;durP1;ratioP1;P1;durP2;ratioP2;P2;SDS_P1;SDS_P2;PMS_P1;PMS_P2;Temp;Humidity;BMP_temperature;BMP_pressure;BME280_temperature;BME280_humidity;BME280_pressure;Samples;Min_cycle;Max_cycle;Signal;HPM_P1;HPM_P2
2022/02/03 00:00:41;;;;;;;72.07;44.13;;;;;;;8.02;100.00;102002.50;10458433;28;20045;-57
2022/02/03 00:26:55;;;;;;;79.78;50.72;;;;;;;8.17;100.00;101999.50;10457777;28;20060;-57
2022/02/03 00:32:10;;;;;;;66.78;46.00;;;;;;;8.26;100.00;101995.75;10457389;28;20048;-59
2022/02/03 00:37:30;;;;;;;64.70;46.03;;;;;;;8.14;100.00;101983.91;10457322;28;20049;-58
2022/02/03 00:48:15;;;;;;;83.07;55.33;;;;;;;8.06;100.00;101975.44;10456728;28;20049;-58
2022/02/03 00:53:19;;;;;;;75.00;53.63;;;;;;;8.15;100.00;101963.00;10457387;28;20045;-58
2022/02/03 00:58:25;;;;;;;83.65;53.92;;;;;;;8.14;100.00;101958.69;10458026;28;20053;-58
2022/02/03 01:03:29;;;;;;;88.28;56.72;;;;;;;8.13;100.00;101950.91;10457515;28;20048;-58
2022/02/03 01:08:35;;;;;;;88.90;57.05;;;;;;;8.05;100.00;101951.09;10456252;28;20485;-58
2022/02/03 01:19:13;;;;;;;97.78;61.20;;;;;;;8.09;100.00;101944.91;10456447;28;20103;-59
2022/02/03 01:56:16;;;;;;;102.25;63.72;;;;;;;8.09;100.00;101925.81;10463744;28;20124;-58
2022/02/03 02:01:27;;;;;;;95.77;62.50;;;;;;;8.13;100.00;101922.19;10463106;28;20041;-57
2022/02/03 02:06:39;;;;;;;94.57;61.17;;;;;;;8.10;100.00;101904.03;10463138;28;20052;-60
2022/02/03 02:12:24;;;;;;;89.95;58.53;;;;;;;8.10;100.00;101899.69;10461759;28;20045;-58
2022/02/03 02:39:10;;;;;;;93.15;59.78;;;;;;;8.12;100.00;101884.84;10461639;28;20052;-58
2022/02/03 02:44:22;;;;;;;104.97;65.72;;;;;;;8.01;100.00;101886.91;10460990;28;20492;-58
2022/02/03 02:49:51;;;;;;;90.30;60.08;;;;;;;7.99;100.00;101871.28;10460157;28;20056;-58
2022/02/03 03:37:46;;;;;;;62.60;41.95;;;;;;;8.05;100.00;101791.16;10459510;28;20049;-58
2022/02/03 03:43:11;;;;;;;65.13;43.00;;;;;;;8.00;100.00;101773.03;10461925;28;20060;-58
2022/02/03 03:48:17;;;;;;;61.30;42.47;;;;;;;7.95;100.00;101780.16;10457205;28;20052;-59
2022/02/03 03:53:50;;;;;;;60.80;42.92;;;;;;;7.87;100.00;101774.31;10458808;28;20052;-59
2022/02/03 04:51:03;;;;;;;33.10;23.73;;;;;;;7.69;100.00;101753.13;10456846;28;20436;-59
2022/02/03 04:54:38;;;;;;;36.15;23.45;;;;;;;7.62;100.00;101765.47;10454471;28;20052;-59
2022/02/03 05:49:39;;;;;;;17.70;12.85;;;;;;;7.35;100.00;101698.56;10457499;28;20052;-58
2022/02/03 05:54:53;;;;;;;20.90;15.30;;;;;;;7.49;100.00;101690.31;10454647;28;20465;-62
2022/02/03 06:05:32;;;;;;;20.25;13.95;;;;;;;7.47;100.00;101697.34;10455390;28;20485;-59
2022/02/03 06:16:47;;;;;;;22.25;11.35;;;;;;;7.34;100.00;101681.22;10457039;28;20447;-58
2022/02/03 06:21:31;;;;;;;10.85;7.43;;;;;;;7.28;100.00;101661.41;10459571;28;20067;-57
2022/02/03 06:31:55;;;;;;;;;;;;;;;7.28;100.00;101669.22;10463631;28;20048;-58
2022/02/03 06:36:57;;;;;;;9.18;5.63;;;;;;;7.25;100.00;101654.53;10461609;28;20428;-57
2022/02/03 06:42:01;;;;;;;13.48;5.95;;;;;;;7.40;100.00;101650.63;10461641;28;20045;-58
2022/02/03 06:47:16;;;;;;;9.25;5.95;;;;;;;7.37;100.00;101642.03;10461411;28;20500;-59
2022/02/03 06:52:25;;;;;;;8.30;5.60;;;;;;;7.33;100.00;101643.91;10461449;28;20049;-57
2022/02/03 06:57:56;;;;;;;12.65;5.38;;;;;;;7.15;100.00;101650.50;10461843;28;20111;-56
2022/02/03 07:02:54;;;;;;;10.40;5.60;;;;;;;7.15;100.00;101636.63;10460908;28;20044;-59
2022/02/03 07:07:57;;;;;;;9.35;6.80;;;;;;;7.25;100.00;101623.28;10461602;28;20053;-59
2022/02/03 07:12:59;;;;;;;13.50;7.13;;;;;;;7.13;100.00;101622.78;10461280;28;20052;-57
2022/02/03 07:18:03;;;;;;;11.75;7.85;;;;;;;7.14;100.00;101607.13;10460305;28;20053;-59
2022/02/03 07:23:06;;;;;;;13.88;7.90;;;;;;;7.09;100.00;101614.22;10459937;28;20417;-57
2022/02/03 07:28:09;;;;;;;20.38;9.05;;;;;;;7.14;100.00;101594.09;10458170;28;20136;-56
2022/02/03 07:33:12;;;;;;;12.63;7.88;;;;;;;7.13;100.00;101594.13;10459473;28;20049;-58
2022/02/03 07:38:18;;;;;;;16.08;9.13;;;;;;;7.09;100.00;101588.16;10459654;28;20053;-58
2022/02/03 07:43:21;;;;;;;18.95;9.75;;;;;;;7.03;100.00;101589.22;10459352;28;20056;-56
2022/02/03 07:48:24;;;;;;;15.60;9.18;;;;;;;7.16;100.00;101573.22;10459448;28;20049;-58
2022/02/03 07:53:26;;;;;;;10.95;8.00;;;;;;;7.17;100.00;101573.16;10459530;28;20053;-57
2022/02/03 07:58:28;;;;;;;14.38;9.02;;;;;;;7.21;100.00;101566.09;10458494;28;20053;-57
2022/02/03 08:03:31;;;;;;;12.55;8.05;;;;;;;7.32;100.00;101573.59;10458264;28;20049;-56
2022/02/03 08:08:44;;;;;;;13.32;9.43;;;;;;;7.24;100.00;101571.22;10458087;28;20048;-58
2022/02/03 08:18:59;;;;;;;16.23;9.45;;;;;;;7.40;100.00;101585.47;10457319;28;20070;-58
2022/02/03 08:34:21;;;;;;;18.50;10.73;;;;;;;7.28;100.00;101566.78;10463223;28;20393;-59
2022/02/03 08:39:23;;;;;;;17.92;10.90;;;;;;;7.18;100.00;101561.88;10456552;28;20049;-57
2022/02/03 08:44:26;;;;;;;17.52;10.88;;;;;;;7.25;100.00;101558.16;10457061;28;20071;-58
2022/02/03 08:49:28;;;;;;;18.45;10.80;;;;;;;7.22;100.00;101560.84;10456747;28;20074;-58
2022/02/03 08:54:34;;;;;;;18.25;11.73;;;;;;;7.45;100.00;101538.44;10456881;28;20057;-57
2022/02/03 09:58:40;;;;;;;15.05;7.68;;;;;;;7.67;100.00;101522.94;10461525;28;20049;-57
2022/02/03 10:03:46;;;;;;;10.52;6.40;;;;;;;7.54;100.00;101519.88;10462769;28;20057;-59
2022/02/03 10:08:54;;;;;;;9.73;6.18;;;;;;;7.84;100.00;101521.53;10459919;28;20044;-59
2022/02/03 10:14:01;;;;;;;12.43;6.22;;;;;;;8.11;100.00;101509.28;10462664;28;20060;-59
2022/02/03 10:19:19;;;;;;;13.48;7.18;;;;;;;8.06;100.00;101500.78;10462640;28;20056;-58
2022/02/03 10:24:23;;;;;;;9.80;6.03;;;;;;;7.77;99.56;101500.03;10462218;28;20056;-58
2022/02/03 10:29:32;;;;;;;11.77;6.65;;;;;;;8.00;100.00;101505.28;10462009;28;20497;-59
2022/02/03 10:34:43;;;;;;;12.02;7.20;;;;;;;7.91;100.00;101497.78;10462747;28;20051;-59
2022/02/03 10:55:43;;;;;;;16.13;7.82;;;;;;;7.78;96.33;101491.28;10461048;28;20056;-57
2022/02/03 11:11:18;;;;;;;13.95;8.05;;;;;;;7.71;97.01;101469.78;10460560;28;20467;-57
2022/02/03 11:16:20;;;;;;;11.27;7.03;;;;;;;8.03;97.41;101443.50;10460784;28;20041;-59
2022/02/03 11:21:23;;;;;;;30.63;8.73;;;;;;;8.35;96.47;101440.56;10460207;28;20053;-59
2022/02/03 11:27:00;;;;;;;17.58;8.52;;;;;;;8.46;90.17;101431.50;10459802;28;20045;-57
2022/02/03 11:32:22;;;;;;;13.38;8.32;;;;;;;8.62;89.57;101422.13;10458668;28;20519;-60
2022/02/03 11:48:47;;;;;;;14.57;7.50;;;;;;;8.35;92.38;101404.03;10459478;28;20049;-59
2022/02/03 11:54:18;;;;;;;11.70;6.88;;;;;;;8.28;93.66;101392.09;10443645;28;20051;-59
2022/02/03 12:10:42;;;;;;;16.05;7.82;;;;;;;8.27;91.40;101369.56;10458296;28;20409;-59
2022/02/03 12:21:26;;;;;;;16.85;7.00;;;;;;;8.32;91.88;101343.25;10457695;28;20404;-58
2022/02/03 12:26:43;;;;;;;14.57;6.95;;;;;;;8.05;91.05;101350.41;10457779;28;20041;-56
2022/02/03 12:43:02;;;;;;;12.97;6.57;;;;;;;8.13;93.75;101320.50;10452572;28;20053;-59
2022/02/03 12:48:05;;;;;;;;;;;;;;;8.10;96.53;101328.47;10457844;28;20041;-58
2022/02/03 12:53:08;;;;;;;10.98;6.97;;;;;;;8.06;97.25;101316.44;10456820;28;20395;-57
2022/02/03 12:58:17;;;;;;;12.02;6.63;;;;;;;7.72;97.46;101317.72;10456107;28;20079;-58
2022/02/03 13:03:21;;;;;;;16.33;7.47;;;;;;;7.71;99.39;101315.16;10456912;28;20047;-59
2022/02/03 13:08:40;;;;;;;12.98;7.65;;;;;;;7.53;100.00;101319.28;10455080;28;20405;-55
2022/02/03 13:14:06;;;;;;;9.70;6.32;;;;;;;7.54;100.00;101305.38;10456682;28;20047;-58
2022/02/03 13:19:20;;;;;;;12.63;6.73;;;;;;;7.66;100.00;101302.31;10457068;28;20071;-56
2022/02/03 13:24:40;;;;;;;10.38;6.57;;;;;;;7.63;100.00;101292.00;10457722;28;20275;-59
2022/02/03 13:35:16;;;;;;;13.88;6.28;;;;;;;7.66;100.00;101294.47;10464537;28;20045;-57
2022/02/03 13:40:20;;;;;;;8.57;6.25;;;;;;;7.60;100.00;101297.34;10464126;28;20055;-58
2022/02/03 13:45:22;;;;;;;12.13;6.70;;;;;;;7.67;100.00;101293.59;10463895;28;20048;-58
2022/02/03 13:50:29;;;;;;;8.65;5.82;;;;;;;7.74;100.00;101295.06;10464191;28;20060;-58
2022/02/03 14:22:12;;;;;;;14.68;8.02;;;;;;;7.43;100.00;101264.94;10462954;28;20053;-58
2022/02/03 14:32:30;;;;;;;13.10;7.05;;;;;;;7.21;100.00;101257.06;10461983;28;20075;-59
2022/02/03 14:42:38;;;;;;;20.20;7.88;;;;;;;7.30;100.00;101247.22;10461595;28;20064;-58
2022/02/03 14:47:40;;;;;;;16.20;10.43;;;;;;;7.00;100.00;101244.78;10470515;28;20370;-59
2022/02/03 14:53:02;;;;;;;14.45;9.25;;;;;;;6.97;100.00;101235.31;10461228;28;20055;-58
2022/02/03 14:58:08;;;;;;;20.88;11.73;;;;;;;7.02;100.00;101240.38;10460152;28;20508;-57
2022/02/03 15:03:10;;;;;;;20.35;9.15;;;;;;;7.17;100.00;101234.59;10461634;28;20045;-56
2022/02/03 15:08:18;;;;;;;16.80;10.35;;;;;;;6.83;100.00;101221.97;10461114;28;20049;-56
2022/02/03 15:18:23;;;;;;;13.57;9.50;;;;;;;6.82;100.00;101215.03;10460321;28;20485;-58
2022/02/03 15:23:26;;;;;;;15.55;8.68;;;;;;;7.01;100.00;101210.91;10460163;28;20055;-57
2022/02/03 15:28:29;;;;;;;19.38;10.52;;;;;;;7.03;100.00;101219.50;10459838;28;20489;-57
2022/02/03 15:33:31;;;;;;;18.42;10.90;;;;;;;6.76;100.00;101208.31;10459492;28;20049;-58
2022/02/03 15:38:37;;;;;;;14.40;9.85;;;;;;;6.74;100.00;101201.44;10460129;28;20053;-55
2022/02/03 15:43:41;;;;;;;17.13;9.80;;;;;;;6.73;100.00;101186.75;10459572;28;20436;-58
2022/02/03 15:48:55;;;;;;;13.88;9.77;;;;;;;6.88;100.00;101191.41;10459115;28;20095;-58
2022/02/03 16:13:22;;;;;;;15.95;9.52;;;;;;;6.76;100.00;101187.50;10458349;28;20070;-56
2022/02/03 16:41:51;;;;;;;18.35;12.68;;;;;;;6.92;100.00;101200.78;10457561;28;20056;-58
2022/02/03 16:57:16;;;;;;;20.77;14.05;;;;;;;6.88;100.00;101194.84;10456879;28;20044;-58
2022/02/03 17:02:19;;;;;;;20.77;13.65;;;;;;;6.58;100.00;101193.34;10456469;28;20049;-57
2022/02/03 17:07:25;;;;;;;21.98;15.35;;;;;;;6.72;100.00;101198.88;10456783;28;20049;-57
2022/02/03 17:12:27;;;;;;;19.10;13.60;;;;;;;6.69;100.00;101210.28;10456673;28;20057;-59
2022/02/03 17:17:30;;;;;;;24.08;17.30;;;;;;;6.67;100.00;101203.41;10456035;28;20497;-58
2022/02/03 17:22:39;;;;;;;21.73;16.50;;;;;;;6.58;100.00;101195.94;10456246;28;20049;-59
2022/02/03 17:27:58;;;;;;;21.50;16.95;;;;;;;6.79;100.00;101199.53;10456607;28;20056;-56
2022/02/03 18:37:18;;;;;;;24.33;18.90;;;;;;;6.57;100.00;101189.03;10462015;28;20055;-58
2022/02/03 18:53:16;;;;;;;22.17;17.00;;;;;;;6.68;100.00;101202.50;10461814;28;20049;-59
2022/02/03 18:58:44;;;;;;;23.27;19.05;;;;;;;6.47;100.00;101201.47;10461485;28;20041;-59
2022/02/03 20:12:55;;;;;;;33.22;24.33;;;;;;;6.82;100.00;101191.63;10436051;28;20057;-58
2022/02/03 20:17:57;;;;;;;30.25;23.98;;;;;;;6.63;100.00;101188.81;10458037;28;20045;-57
2022/02/03 20:23:03;;;;;;;35.50;26.80;;;;;;;6.78;100.00;101183.06;10457831;28;20413;-59
2022/02/03 20:28:06;;;;;;;39.22;27.20;;;;;;;6.59;100.00;101176.81;10457890;28;20052;-59
2022/02/03 20:33:08;;;;;;;41.33;27.85;;;;;;;6.59;100.00;101171.59;10457075;28;20045;-57
2022/02/03 20:38:14;;;;;;;49.10;32.47;;;;;;;6.53;100.00;101185.69;10457007;28;20073;-59
2022/02/03 20:43:17;;;;;;;33.90;25.77;;;;;;;6.75;100.00;101177.97;10456995;28;20175;-58
2022/02/03 20:48:20;;;;;;;42.92;30.73;;;;;;;6.47;100.00;101168.53;10457206;28;20044;-56
2022/02/03 20:53:22;;;;;;;42.38;30.80;;;;;;;6.52;100.00;101176.16;10457349;28;20055;-58
2022/02/03 20:58:25;;;;;;;45.50;30.23;;;;;;;6.45;100.00;101172.06;10456795;28;20052;-57
2022/02/03 21:03:33;;;;;;;42.25;29.63;;;;;;;6.62;100.00;101168.91;10457152;28;20086;-56
2022/02/03 21:08:39;;;;;;;46.17;31.05;;;;;;;6.68;100.00;101160.88;10456684;28;20416;-57
2022/02/03 21:13:42;;;;;;;53.20;34.45;;;;;;;6.63;100.00;101163.63;10456541;28;20056;-60
2022/02/03 21:18:46;;;;;;;45.83;31.08;;;;;;;6.86;100.00;101170.63;10455259;28;20053;-59
2022/02/03 21:23:48;;;;;;;48.35;34.70;;;;;;;6.62;100.00;101171.50;10456262;28;20049;-56
2022/02/03 21:28:50;;;;;;;50.70;35.67;;;;;;;6.54;100.00;101153.56;10457061;28;20049;-58
2022/02/03 21:33:55;;;;;;;49.00;33.28;;;;;;;6.68;100.00;101158.28;10455199;28;20045;-56
2022/02/03 21:38:58;;;;;;;51.58;35.55;;;;;;;6.68;100.00;101166.94;10455873;28;20052;-58
2022/02/03 21:44:00;;;;;;;49.58;35.55;;;;;;;6.66;100.00;101167.91;10456926;28;20057;-56
2022/02/03 21:49:03;;;;;;;50.45;34.92;;;;;;;6.72;100.00;101167.66;10463083;28;20052;-59
2022/02/03 21:54:05;;;;;;;43.20;30.83;;;;;;;6.80;100.00;101163.03;10463996;28;20056;-59
2022/02/03 21:59:08;;;;;;;43.60;31.90;;;;;;;6.90;100.00;101176.56;10464149;28;20063;-58
2022/02/03 22:04:11;;;;;;;48.33;33.72;;;;;;;6.57;100.00;101174.25;10463230;28;20136;-58
2022/02/03 22:09:14;;;;;;;48.00;35.45;;;;;;;6.64;100.00;101167.09;10462937;28;20053;-56
2022/02/03 22:14:16;;;;;;;44.00;32.85;;;;;;;6.65;100.00;101154.03;10462743;28;20055;-57
2022/02/03 22:19:19;;;;;;;45.25;32.33;;;;;;;6.65;100.00;101159.22;10462580;28;20053;-57
2022/02/03 22:24:30;;;;;;;47.72;35.03;;;;;;;6.64;100.00;101160.16;10462657;28;20049;-58
2022/02/03 22:49:59;;;;;;;47.22;30.58;;;;;;;6.72;100.00;101154.66;10461389;28;20499;-58
2022/02/03 22:55:03;;;;;;;51.88;34.50;;;;;;;6.64;100.00;101148.88;10461334;28;20435;-58
2022/02/03 23:05:17;;;;;;;51.33;33.58;;;;;;;6.67;100.00;101131.41;10460822;28;20132;-56
2022/02/03 23:20:50;;;;;;;50.22;35.13;;;;;;;6.69;100.00;101140.00;10460421;28;20052;-58
2022/02/03 23:25:52;;;;;;;42.85;31.88;;;;;;;6.77;100.00;101151.91;10460458;28;20045;-58
2022/02/03 23:30:54;;;;;;;47.55;35.15;;;;;;;6.65;100.00;101155.78;10459950;28;20123;-54
2022/02/03 23:35:57;;;;;;;44.20;33.25;;;;;;;6.86;100.00;101162.84;10459890;28;20052;-55
